createdAt,value
2019-01-21T00:00:34.851Z,-5.50
2019-01-21T00:03:03.595Z,-5.51
2019-01-21T00:05:32.027Z,-5.50
2019-01-21T00:08:00.464Z,-5.50
2019-01-21T00:10:28.932Z,-5.49
2019-01-21T00:12:57.439Z,-5.49
2019-01-21T00:15:25.972Z,-5.51
2019-01-21T00:17:54.474Z,-5.51
2019-01-21T00:20:22.938Z,-5.57
2019-01-21T00:22:51.372Z,-5.58
2019-01-21T00:25:19.838Z,-5.57
2019-01-21T00:27:48.281Z,-5.54
2019-01-21T00:30:16.800Z,-5.51
2019-01-21T00:32:45.239Z,-5.52
2019-01-21T00:35:13.707Z,-5.51
2019-01-21T00:37:42.215Z,-5.47
2019-01-21T00:40:16.019Z,-5.46
2019-01-21T00:42:44.518Z,-5.44
2019-01-21T00:45:13.113Z,-5.41
2019-01-21T00:47:43.089Z,-5.37
2019-01-21T00:50:13.185Z,-5.36
2019-01-21T00:52:41.699Z,-5.36
2019-01-21T00:55:11.903Z,-5.32
2019-01-21T00:57:40.410Z,-5.31
2019-01-21T01:00:14.637Z,-5.36
2019-01-21T01:02:43.139Z,-5.38
2019-01-21T01:05:12.347Z,-5.39
2019-01-21T01:07:40.854Z,-5.45
2019-01-21T01:10:11.832Z,-5.51
2019-01-21T01:12:40.362Z,-5.58
2019-01-21T01:15:11.703Z,-5.57
2019-01-21T01:17:40.245Z,-5.54
2019-01-21T01:20:17.698Z,-5.50
2019-01-21T01:22:46.158Z,-5.47
2019-01-21T01:25:14.665Z,-5.43
2019-01-21T01:27:43.193Z,-5.39
2019-01-21T01:30:14.072Z,-5.40
2019-01-21T01:32:42.529Z,-5.40
2019-01-21T01:35:12.504Z,-5.42
2019-01-21T01:37:42.215Z,-5.44
2019-01-21T01:40:13.499Z,-5.42
2019-01-21T01:42:42.034Z,-5.39
2019-01-21T01:45:13.874Z,-5.39
2019-01-21T01:47:44.825Z,-5.38
2019-01-21T01:50:12.620Z,-5.37
2019-01-21T01:52:41.090Z,-5.35
2019-01-21T01:55:10.864Z,-5.31
2019-01-21T01:57:39.331Z,-5.28
2019-01-21T02:00:13.497Z,-5.25
2019-01-21T02:02:42.031Z,-5.22
2019-01-21T02:05:10.913Z,-5.20
2019-01-21T02:07:39.375Z,-5.21
2019-01-21T02:10:10.946Z,-5.19
2019-01-21T02:12:39.456Z,-5.17
2019-01-21T02:15:10.972Z,-5.21
2019-01-21T02:17:39.506Z,-5.19
2019-01-21T02:20:11.445Z,-5.17
2019-01-21T02:22:42.789Z,-5.18
2019-01-21T02:25:11.877Z,-5.18
2019-01-21T02:28:09.481Z,-5.15
2019-01-21T02:30:59.299Z,-5.14
2019-01-21T02:33:50.484Z,-5.16
2019-01-21T02:36:39.558Z,-5.17
2019-01-21T02:39:33.028Z,-5.20
2019-01-21T02:42:07.264Z,-5.26
2019-01-21T02:45:03.091Z,-5.32
2019-01-21T02:47:34.710Z,-5.34
2019-01-21T02:50:17.582Z,-5.37
2019-01-21T02:52:49.194Z,-5.36
2019-01-21T02:55:26.614Z,-5.34
2019-01-21T02:58:15.978Z,-5.31
2019-01-21T03:01:01.962Z,-5.28
2019-01-21T03:03:42.159Z,-5.31
2019-01-21T03:06:13.789Z,-5.34
2019-01-21T03:08:51.357Z,-5.33
2019-01-21T03:11:35.148Z,-5.33
2019-01-21T03:14:09.754Z,-5.32
2019-01-21T03:16:44.298Z,-5.32
2019-01-21T03:19:27.784Z,-5.28
2019-01-21T03:22:22.397Z,-5.28
2019-01-21T03:25:02.905Z,-5.25
2019-01-21T03:27:54.407Z,-5.27
2019-01-21T03:30:47.274Z,-5.25
2019-01-21T03:33:31.101Z,-5.22
2019-01-21T03:36:05.999Z,-5.18
2019-01-21T03:38:52.742Z,-5.17
2019-01-21T03:41:24.377Z,-5.15
2019-01-21T03:43:58.797Z,-5.14
2019-01-21T03:46:42.329Z,-5.13
2019-01-21T03:49:26.005Z,-5.12
2019-01-21T03:52:23.174Z,-5.09
2019-01-21T03:54:52.049Z,-5.11
2019-01-21T03:57:26.278Z,-5.07
2019-01-21T04:00:15.971Z,-5.09
2019-01-21T04:03:10.448Z,-5.16
2019-01-21T04:06:00.405Z,-5.21
2019-01-21T04:08:34.771Z,-5.24
2019-01-21T04:11:33.789Z,-5.22
2019-01-21T04:14:23.726Z,-5.20
2019-01-21T04:17:13.395Z,-5.21
2019-01-21T04:19:45.293Z,-5.23
2019-01-21T04:22:31.741Z,-5.26
2019-01-21T04:25:18.170Z,-5.29
2019-01-21T04:28:11.163Z,-5.27
2019-01-21T04:31:01.049Z,-5.23
2019-01-21T04:33:44.746Z,-5.18
2019-01-21T04:36:28.054Z,-5.18
2019-01-21T04:39:27.056Z,-5.18
2019-01-21T04:42:13.822Z,-5.18
2019-01-21T04:45:05.242Z,-5.16
2019-01-21T04:48:01.194Z,-5.15
2019-01-21T04:50:44.519Z,-5.13
2019-01-21T04:53:27.995Z,-5.10
2019-01-21T04:55:59.976Z,-5.09
2019-01-21T04:58:34.459Z,-5.06
2019-01-21T05:01:08.507Z,-5.05
2019-01-21T05:04:13.709Z,-5.04
2019-01-21T05:06:45.310Z,-5.04
2019-01-21T05:09:28.515Z,-5.05
2019-01-21T05:12:15.278Z,-5.06
2019-01-21T05:15:09.520Z,-5.06
2019-01-21T05:17:43.884Z,-5.06
2019-01-21T05:20:18.545Z,-5.06
2019-01-21T05:23:06.925Z,-5.04
2019-01-21T05:25:38.555Z,-5.03
2019-01-21T05:28:26.658Z,-5.00
2019-01-21T05:30:58.293Z,-4.98
2019-01-21T05:33:36.352Z,-4.98
2019-01-21T05:36:26.248Z,-4.97
2019-01-21T05:39:13.033Z,-4.93
2019-01-21T05:42:01.189Z,-4.93
2019-01-21T05:44:35.354Z,-4.92
2019-01-21T05:47:22.210Z,-4.90
2019-01-21T05:50:02.762Z,-4.88
2019-01-21T05:52:50.978Z,-4.87
2019-01-21T05:55:40.704Z,-4.85
2019-01-21T05:58:27.324Z,-4.85
2019-01-21T06:01:09.962Z,-4.82
2019-01-21T06:03:44.114Z,-4.80
2019-01-21T06:06:32.630Z,-4.79
2019-01-21T06:09:10.294Z,-4.77
2019-01-21T06:11:44.609Z,-4.75
2019-01-21T06:14:45.129Z,-4.74
2019-01-21T06:17:28.681Z,-4.73
2019-01-21T06:20:14.753Z,-4.72
2019-01-21T06:23:01.179Z,-4.70
2019-01-21T06:25:41.474Z,-4.68
2019-01-21T06:28:28.016Z,-4.66
2019-01-21T06:31:05.384Z,-4.64
2019-01-21T06:33:42.960Z,-4.63
2019-01-21T06:36:14.607Z,-4.63
2019-01-21T06:38:48.984Z,-4.67
2019-01-21T06:41:38.778Z,-4.70
2019-01-21T06:44:16.339Z,-4.72
2019-01-21T06:47:08.608Z,-4.72
2019-01-21T06:49:46.163Z,-4.72
2019-01-21T06:52:20.712Z,-4.71
2019-01-21T06:55:10.409Z,-4.70
2019-01-21T06:58:01.752Z,-4.71
2019-01-21T07:01:06.561Z,-4.69
2019-01-21T07:03:49.956Z,-4.69
2019-01-21T07:06:33.449Z,-4.64
2019-01-21T07:09:11.177Z,-4.62
2019-01-21T07:11:57.581Z,-4.59
2019-01-21T07:14:34.455Z,-4.58
2019-01-21T07:17:08.909Z,-4.58
2019-01-21T07:19:40.530Z,-4.56
2019-01-21T07:22:30.399Z,-4.54
2019-01-21T07:25:16.962Z,-4.55
2019-01-21T07:28:09.787Z,-4.61
2019-01-21T07:31:01.898Z,-4.66
2019-01-21T07:33:35.961Z,-4.72
2019-01-21T07:36:22.899Z,-4.77
2019-01-21T07:38:57.296Z,-4.82
2019-01-21T07:41:47.110Z,-4.87
2019-01-21T07:44:30.909Z,-4.91
2019-01-21T07:47:17.586Z,-4.96
2019-01-21T07:49:55.232Z,-4.98
2019-01-21T07:52:32.602Z,-4.99
2019-01-21T07:55:21.003Z,-4.93
2019-01-21T07:57:55.112Z,-4.85
2019-01-21T08:00:29.498Z,-4.75
2019-01-21T08:03:06.868Z,-4.64
2019-01-21T08:05:38.511Z,-4.56
2019-01-21T08:08:12.831Z,-4.47
2019-01-21T08:10:53.463Z,-4.39
2019-01-21T08:13:25.075Z,-4.31
2019-01-21T08:15:59.670Z,-4.17
2019-01-21T08:18:56.722Z,-4.05
2019-01-21T08:21:37.120Z,-3.93
2019-01-21T08:24:35.910Z,-3.91
2019-01-21T08:27:10.518Z,-3.90
2019-01-21T08:29:42.162Z,-3.86
2019-01-21T08:32:31.884Z,-3.85
2019-01-21T08:35:06.358Z,-3.75
2019-01-21T08:37:40.790Z,-3.70
2019-01-21T08:40:34.958Z,-3.74
2019-01-21T08:43:12.685Z,-3.67
2019-01-21T08:46:05.295Z,-3.57
2019-01-21T08:48:53.382Z,-3.54
2019-01-21T08:51:33.921Z,-3.51
2019-01-21T08:54:14.525Z,-3.55
2019-01-21T08:57:04.584Z,-3.57
2019-01-21T08:59:57.454Z,-3.53
2019-01-21T09:02:48.464Z,-3.57
2019-01-21T09:05:32.205Z,-3.56
2019-01-21T09:08:15.673Z,-3.60
2019-01-21T09:10:56.084Z,-3.65
2019-01-21T09:13:51.775Z,-3.59
2019-01-21T09:16:35.302Z,-3.52
2019-01-21T09:19:21.792Z,-3.47
2019-01-21T09:21:59.112Z,-3.47
2019-01-21T09:24:45.807Z,-3.42
2019-01-21T09:27:20.487Z,-3.40
2019-01-21T09:30:04.120Z,-3.33
2019-01-21T09:32:35.750Z,-3.27
2019-01-21T09:35:07.359Z,-3.16
2019-01-21T09:37:47.953Z,-3.02
2019-01-21T09:40:22.617Z,-2.87
2019-01-21T09:43:00.390Z,-2.82
2019-01-21T09:45:37.961Z,-2.79
2019-01-21T09:48:05.384Z,-2.83
2019-01-21T09:50:34.181Z,-2.77
2019-01-21T09:53:02.708Z,-2.67
2019-01-21T09:55:31.204Z,-2.60
2019-01-21T09:58:08.233Z,-2.55
2019-01-21T10:00:36.799Z,-2.59
2019-01-21T10:03:05.821Z,-2.63
2019-01-21T10:05:36.119Z,-2.58
2019-01-21T10:08:10.404Z,-2.60
2019-01-21T10:11:03.523Z,-2.64
2019-01-21T10:13:58.343Z,-2.58
2019-01-21T10:16:41.964Z,-2.49
2019-01-21T10:19:31.703Z,-2.43
2019-01-21T10:22:09.028Z,-2.33
2019-01-21T10:24:52.815Z,-2.33
2019-01-21T10:27:27.173Z,-2.36
2019-01-21T10:30:19.745Z,-2.36
2019-01-21T10:33:09.640Z,-2.20
2019-01-21T10:35:50.306Z,-2.11
2019-01-21T10:38:46.038Z,-2.00
2019-01-21T10:41:20.539Z,-2.01
2019-01-21T10:43:58.089Z,-1.98
2019-01-21T10:46:29.715Z,-1.94
2019-01-21T10:49:01.320Z,-1.92
2019-01-21T10:51:44.952Z,-1.86
2019-01-21T10:54:28.672Z,-1.81
2019-01-21T10:57:21.408Z,-1.73
2019-01-21T11:00:11.086Z,-1.71
2019-01-21T11:02:48.395Z,-1.62
2019-01-21T11:05:25.886Z,-1.55
2019-01-21T11:08:00.069Z,-1.56
2019-01-21T11:10:46.717Z,-1.53
2019-01-21T11:13:36.360Z,-1.41
2019-01-21T11:16:22.857Z,-1.37
2019-01-21T11:19:00.049Z,-1.29
2019-01-21T11:21:34.351Z,-1.28
2019-01-21T11:24:08.509Z,-1.23
2019-01-21T11:26:48.744Z,-1.18
2019-01-21T11:29:20.348Z,-1.13
2019-01-21T11:32:15.883Z,-1.00
2019-01-21T11:35:02.731Z,-0.98
2019-01-21T11:37:34.354Z,-0.98
2019-01-21T11:40:14.230Z,-1.05
2019-01-21T11:42:48.550Z,-0.95
2019-01-21T11:45:29.201Z,-1.01
2019-01-21T11:48:00.825Z,-0.89
2019-01-21T11:50:48.776Z,-0.88
2019-01-21T11:53:29.492Z,-0.78
2019-01-21T11:56:13.158Z,-0.81
2019-01-21T11:58:50.544Z,-0.74
2019-01-21T12:01:32.078Z,-0.70
2019-01-21T12:04:18.263Z,-0.70
2019-01-21T12:06:58.967Z,-0.62
2019-01-21T12:09:35.773Z,-0.47
2019-01-21T12:12:07.408Z,-0.49
2019-01-21T12:14:55.529Z,-0.45
2019-01-21T12:17:32.810Z,-0.51
2019-01-21T12:20:10.237Z,-0.46
2019-01-21T12:23:07.247Z,-0.45
2019-01-21T12:25:44.715Z,-0.62
2019-01-21T12:28:25.133Z,-0.72
2019-01-21T12:31:02.846Z,-0.84
2019-01-21T12:33:43.021Z,-0.91
2019-01-21T12:36:20.236Z,-1.05
2019-01-21T12:38:54.630Z,-1.12
2019-01-21T12:41:48.773Z,-1.25
2019-01-21T12:44:35.710Z,-1.38
2019-01-21T12:47:32.983Z,-1.42
2019-01-21T12:50:10.395Z,-1.45
2019-01-21T12:52:41.997Z,-1.48
2019-01-21T12:55:22.590Z,-1.52
2019-01-21T12:58:12.114Z,-1.55
2019-01-21T13:00:55.188Z,-1.58
2019-01-21T13:03:46.518Z,-1.60
2019-01-21T13:06:23.396Z,-1.56
2019-01-21T13:09:13.258Z,-1.53
2019-01-21T13:11:56.635Z,-1.50
2019-01-21T13:14:40.118Z,-1.51
2019-01-21T13:17:14.646Z,-1.55
2019-01-21T13:20:05.680Z,-1.52
2019-01-21T13:22:40.133Z,-1.50
2019-01-21T13:25:28.239Z,-1.50
2019-01-21T13:28:19.272Z,-1.49
2019-01-21T13:31:21.394Z,-1.45
2019-01-21T13:34:04.284Z,-1.43
2019-01-21T13:37:09.521Z,-1.36
2019-01-21T13:39:56.073Z,-1.33
2019-01-21T13:42:27.668Z,-1.32
2019-01-21T13:45:05.290Z,-1.31
2019-01-21T13:48:01.323Z,-1.29
2019-01-21T13:50:45.924Z,-1.14
2019-01-21T13:53:23.491Z,-1.12
2019-01-21T13:56:04.303Z,-1.12
2019-01-21T13:58:54.134Z,-1.16
2019-01-21T14:01:28.566Z,-1.18
2019-01-21T14:04:03.117Z,-1.19
2019-01-21T14:07:01.463Z,-1.20
2019-01-21T14:09:42.101Z,-1.24
2019-01-21T14:12:16.463Z,-1.24
2019-01-21T14:14:48.062Z,-1.23
2019-01-21T14:17:25.523Z,-1.24
2019-01-21T14:20:02.726Z,-1.18
2019-01-21T14:22:43.375Z,-1.12
2019-01-21T14:25:20.929Z,-1.00
2019-01-21T14:28:07.470Z,-0.93
2019-01-21T14:30:47.834Z,-0.91
2019-01-21T14:33:22.058Z,-0.90
2019-01-21T14:36:02.747Z,-0.94
2019-01-21T14:38:37.153Z,-0.98
2019-01-21T14:41:17.808Z,-1.09
2019-01-21T14:43:55.226Z,-1.13
2019-01-21T14:46:32.693Z,-1.22
2019-01-21T14:49:19.265Z,-1.32
2019-01-21T14:51:56.749Z,-1.41
2019-01-21T14:54:37.540Z,-1.48
2019-01-21T14:57:15.062Z,-1.55
2019-01-21T15:00:16.723Z,-1.57
2019-01-21T15:03:07.196Z,-1.65
2019-01-21T15:05:50.458Z,-1.70
2019-01-21T15:08:22.056Z,-1.77
2019-01-21T15:10:59.551Z,-1.81
2019-01-21T15:13:36.919Z,-1.84
2019-01-21T15:16:23.584Z,-1.85
2019-01-21T15:19:00.475Z,-1.84
2019-01-21T15:21:40.857Z,-1.83
2019-01-21T15:24:15.405Z,-1.79
2019-01-21T15:26:58.546Z,-1.74
2019-01-21T15:29:42.030Z,-1.71
2019-01-21T15:32:30.131Z,-1.65
2019-01-21T15:35:20.727Z,-1.60
2019-01-21T15:38:04.588Z,-1.58
2019-01-21T15:40:53.016Z,-1.56
2019-01-21T15:43:32.945Z,-1.56
2019-01-21T15:46:30.482Z,-1.56
2019-01-21T15:49:07.748Z,-1.60
2019-01-21T15:52:00.558Z,-1.60
2019-01-21T15:54:37.832Z,-1.61
2019-01-21T15:57:21.573Z,-1.58
2019-01-21T16:00:05.134Z,-1.58
2019-01-21T16:02:45.923Z,-1.58
2019-01-21T16:05:20.358Z,-1.58
2019-01-21T16:07:52.198Z,-1.57
2019-01-21T16:10:35.610Z,-1.56
2019-01-21T16:13:26.722Z,-1.56
2019-01-21T16:16:24.515Z,-1.55
2019-01-21T16:18:58.907Z,-1.54
2019-01-21T16:21:45.655Z,-1.54
2019-01-21T16:24:23.476Z,-1.53
2019-01-21T16:26:57.787Z,-1.53
2019-01-21T16:29:38.254Z,-1.53
2019-01-21T16:32:07.548Z,-1.53
2019-01-21T16:35:00.513Z,-1.52
2019-01-21T16:37:34.677Z,-1.50
2019-01-21T16:40:21.239Z,-1.49
2019-01-21T16:42:49.767Z,-1.49
2019-01-21T16:45:18.198Z,-1.49
2019-01-21T16:47:46.656Z,-1.48
2019-01-21T16:50:15.141Z,-1.47
2019-01-21T16:52:43.663Z,-1.47
2019-01-21T16:55:12.156Z,-1.48
2019-01-21T16:57:40.613Z,-1.51
2019-01-21T17:00:13.839Z,-1.53
2019-01-21T17:02:42.289Z,-1.56
2019-01-21T17:05:13.251Z,-1.60
2019-01-21T17:07:41.706Z,-1.64
2019-01-21T17:10:11.877Z,-1.66
2019-01-21T17:12:40.327Z,-1.71
2019-01-21T17:15:11.499Z,-1.74
2019-01-21T17:17:40.017Z,-1.82
2019-01-21T17:20:11.613Z,-1.90
2019-01-21T17:22:40.066Z,-2.06
2019-01-21T17:25:09.528Z,-2.22
2019-01-21T17:27:37.986Z,-2.39
2019-01-21T17:30:09.587Z,-2.56
2019-01-21T17:32:38.040Z,-2.74
2019-01-21T17:35:08.611Z,-2.91
2019-01-21T17:37:37.061Z,-3.06
2019-01-21T17:40:14.574Z,-3.17
2019-01-21T17:42:43.016Z,-3.25
2019-01-21T17:45:14.687Z,-3.29
2019-01-21T17:47:43.207Z,-3.34
2019-01-21T17:50:13.977Z,-3.38
2019-01-21T17:52:42.473Z,-3.41
2019-01-21T17:55:11.666Z,-3.44
2019-01-21T17:57:40.091Z,-3.44
2019-01-21T18:00:16.028Z,-3.45
2019-01-21T18:02:44.465Z,-3.47
2019-01-21T18:05:12.985Z,-3.51
2019-01-21T18:07:41.416Z,-3.55
2019-01-21T18:10:13.012Z,-3.56
2019-01-21T18:12:41.513Z,-3.59
2019-01-21T18:15:12.005Z,-3.60
2019-01-21T18:17:40.520Z,-3.58
2019-01-21T18:20:14.939Z,-3.56
2019-01-21T18:22:43.373Z,-3.56
2019-01-21T18:25:12.771Z,-3.59
2019-01-21T18:27:41.260Z,-3.65
2019-01-21T18:30:12.891Z,-3.62
2019-01-21T18:32:41.323Z,-3.59
2019-01-21T18:35:11.659Z,-3.52
2019-01-21T18:37:40.425Z,-3.48
2019-01-21T18:40:14.567Z,-3.42
2019-01-21T18:42:43.080Z,-3.39
2019-01-21T18:45:15.085Z,-3.36
2019-01-21T18:47:43.504Z,-3.30
2019-01-21T18:50:12.902Z,-3.26
2019-01-21T18:52:41.495Z,-3.20
2019-01-21T18:55:10.781Z,-3.12
2019-01-21T18:57:39.208Z,-3.07
2019-01-21T19:00:13.692Z,-2.98
2019-01-21T19:02:43.361Z,-2.93
2019-01-21T19:05:12.032Z,-2.85
2019-01-21T19:07:40.464Z,-2.80
2019-01-21T19:10:11.809Z,-2.74
2019-01-21T19:12:40.199Z,-2.68
2019-01-21T19:15:17.629Z,-2.65
2019-01-21T19:17:46.124Z,-2.63
2019-01-21T19:20:16.018Z,-2.62
2019-01-21T19:22:44.444Z,-2.62
2019-01-21T19:25:13.361Z,-2.60
2019-01-21T19:27:41.858Z,-2.59
2019-01-21T19:30:16.390Z,-2.58
2019-01-21T19:32:44.888Z,-2.57
2019-01-21T19:35:16.543Z,-2.58
2019-01-21T19:37:44.969Z,-2.58
2019-01-21T19:40:16.468Z,-2.59
2019-01-21T19:42:44.902Z,-2.60
2019-01-21T19:45:13.499Z,-2.63
2019-01-21T19:47:41.996Z,-2.69
2019-01-21T19:50:13.691Z,-2.73
2019-01-21T19:52:42.188Z,-2.75
2019-01-21T19:55:26.183Z,-2.74
2019-01-21T19:57:54.752Z,-2.76
2019-01-21T20:00:23.953Z,-2.83
2019-01-21T20:02:52.454Z,-2.85
2019-01-21T20:05:21.047Z,-2.87
2019-01-21T20:07:49.543Z,-2.87
2019-01-21T20:10:20.309Z,-2.92
2019-01-21T20:12:48.868Z,-2.97
2019-01-21T20:15:18.359Z,-3.03
2019-01-21T20:17:46.861Z,-3.09
2019-01-21T20:20:18.207Z,-3.18
2019-01-21T20:22:46.724Z,-3.26
2019-01-21T20:25:15.149Z,-3.28
2019-01-21T20:27:43.672Z,-3.29
2019-01-21T20:30:17.123Z,-3.29
2019-01-21T20:32:45.746Z,-3.16
2019-01-21T20:35:14.917Z,-3.06
2019-01-21T20:37:43.376Z,-2.94
2019-01-21T20:40:20.740Z,-2.83
2019-01-21T20:42:49.263Z,-2.75
2019-01-21T20:45:17.760Z,-2.67
2019-01-21T20:47:46.214Z,-2.58
2019-01-21T20:50:17.389Z,-2.51
2019-01-21T20:52:45.919Z,-2.45
2019-01-21T20:55:14.777Z,-2.42
2019-01-21T20:57:43.233Z,-2.37
2019-01-21T21:00:17.840Z,-2.35
2019-01-21T21:02:46.360Z,-2.33
2019-01-21T21:05:14.920Z,-2.30
2019-01-21T21:07:43.377Z,-2.29
2019-01-21T21:10:12.741Z,-2.29
2019-01-21T21:12:41.188Z,-2.29
2019-01-21T21:15:18.757Z,-2.28
2019-01-21T21:17:47.207Z,-2.23
2019-01-21T21:20:16.278Z,-2.11
2019-01-21T21:22:44.771Z,-2.05
2019-01-21T21:25:16.141Z,-1.98
2019-01-21T21:27:44.568Z,-1.95
2019-01-21T21:30:18.894Z,-1.96
2019-01-21T21:32:47.360Z,-1.96
2019-01-21T21:35:15.993Z,-1.92
2019-01-21T21:37:44.498Z,-1.92
2019-01-21T21:40:17.756Z,-1.91
2019-01-21T21:42:46.567Z,-1.89
2019-01-21T21:45:16.964Z,-1.89
2019-01-21T21:47:45.458Z,-1.88
2019-01-21T21:50:16.550Z,-1.88
2019-01-21T21:52:44.975Z,-1.88
2019-01-21T21:55:13.766Z,-1.87
2019-01-21T21:57:42.184Z,-1.89
2019-01-21T22:00:16.676Z,-1.89
2019-01-21T22:02:45.104Z,-1.89
2019-01-21T22:05:13.700Z,-1.89
2019-01-21T22:07:42.201Z,-1.90
2019-01-21T22:10:19.691Z,-1.91
2019-01-21T22:12:46.188Z,-1.90
2019-01-21T22:15:19.707Z,-1.88
2019-01-21T22:17:48.130Z,-1.83
2019-01-21T22:20:18.628Z,-1.79
2019-01-21T22:22:47.319Z,-1.74
2019-01-21T22:25:16.291Z,-1.68
2019-01-21T22:27:44.710Z,-1.67
2019-01-21T22:30:18.955Z,-1.67
2019-01-21T22:32:47.376Z,-1.67
2019-01-21T22:35:15.904Z,-1.68
2019-01-21T22:37:44.712Z,-1.77
2019-01-21T22:40:18.349Z,-1.87
2019-01-21T22:42:46.845Z,-1.98
2019-01-21T22:45:16.730Z,-2.08
2019-01-21T22:47:45.229Z,-2.20
2019-01-21T22:50:15.301Z,-2.27
2019-01-21T22:52:43.811Z,-2.32
2019-01-21T22:55:13.603Z,-2.33
2019-01-21T22:57:42.100Z,-2.36
2019-01-21T23:00:22.351Z,-2.38
2019-01-21T23:02:50.780Z,-2.42
2019-01-21T23:05:19.303Z,-2.48
2019-01-21T23:07:47.732Z,-2.50
2019-01-21T23:10:16.256Z,-2.54
2019-01-21T23:12:44.692Z,-2.63
2019-01-21T23:15:13.293Z,-2.77
2019-01-21T23:17:41.723Z,-2.89
2019-01-21T23:20:11.182Z,-3.02
2019-01-21T23:22:39.632Z,-3.13
2019-01-21T23:25:08.398Z,-3.24
2019-01-21T23:27:37.231Z,-3.35
2019-01-21T23:30:14.389Z,-3.46
2019-01-21T23:32:42.839Z,-3.51
2019-01-21T23:35:11.271Z,-3.59
2019-01-21T23:37:39.726Z,-3.64
2019-01-21T23:40:10.672Z,-3.66
2019-01-21T23:42:39.119Z,-3.71
2019-01-21T23:45:09.496Z,-3.76
2019-01-21T23:47:37.946Z,-3.79
2019-01-21T23:50:11.607Z,-3.83
2019-01-21T23:52:40.446Z,-3.88
2019-01-21T23:55:10.915Z,-3.95
2019-01-21T23:57:41.501Z,-4.01
